createdAt,value
2018-07-25T00:01:46.133Z,58.20
2018-07-25T00:04:15.403Z,58.30
2018-07-25T00:06:44.515Z,58.40
2018-07-25T00:09:13.532Z,58.50
2018-07-25T00:11:42.532Z,58.50
2018-07-25T00:14:15.348Z,58.60
2018-07-25T00:16:44.218Z,58.80
2018-07-25T00:19:13.259Z,58.70
2018-07-25T00:21:42.452Z,59.00
2018-07-25T00:24:11.557Z,59.10
2018-07-25T00:26:40.760Z,59.00
2018-07-25T00:29:09.844Z,59.00
2018-07-25T00:31:39.081Z,59.10
2018-07-25T00:34:08.324Z,59.30
2018-07-25T00:36:37.587Z,59.30
2018-07-25T00:39:19.044Z,59.30
2018-07-25T00:41:48.116Z,59.40
2018-07-25T00:44:17.215Z,59.50
2018-07-25T00:46:46.430Z,59.60
2018-07-25T00:49:15.652Z,59.60
2018-07-25T00:51:44.707Z,59.70
2018-07-25T00:54:13.709Z,59.80
2018-07-25T00:56:42.793Z,59.70
2018-07-25T00:59:11.921Z,59.80
2018-07-25T01:01:42.078Z,59.70
2018-07-25T01:04:10.909Z,60.30
2018-07-25T01:06:44.718Z,60.30
2018-07-25T01:09:13.782Z,60.40
2018-07-25T01:11:43.436Z,60.60
2018-07-25T01:14:12.693Z,60.50
2018-07-25T01:16:42.119Z,60.60
2018-07-25T01:19:11.259Z,60.50
2018-07-25T01:21:40.660Z,60.60
2018-07-25T01:24:11.560Z,60.20
2018-07-25T01:26:40.669Z,60.60
2018-07-25T01:29:09.762Z,60.70
2018-07-25T01:31:39.244Z,60.80
2018-07-25T01:34:08.456Z,60.70
2018-07-25T01:36:37.630Z,61.10
2018-07-25T01:39:09.742Z,61.10
2018-07-25T01:41:42.924Z,61.10
2018-07-25T01:44:12.104Z,61.20
2018-07-25T01:46:42.384Z,61.40
2018-07-25T01:49:11.533Z,61.50
2018-07-25T01:51:40.584Z,61.50
2018-07-25T01:54:09.745Z,61.40
2018-07-25T01:56:39.204Z,61.60
2018-07-25T01:59:08.553Z,61.70
2018-07-25T02:01:38.132Z,61.70
2018-07-25T02:04:07.349Z,61.70
2018-07-25T02:06:36.601Z,61.80
2018-07-25T02:09:08.833Z,61.70
2018-07-25T02:11:37.858Z,61.90
2018-07-25T02:14:07.093Z,61.80
2018-07-25T02:16:36.667Z,62.00
2018-07-25T02:19:05.821Z,62.10
2018-07-25T02:21:34.835Z,62.10
2018-07-25T02:24:04.014Z,62.20
2018-07-25T02:26:33.123Z,62.30
2018-07-25T02:29:02.302Z,62.30
2018-07-25T02:31:34.147Z,62.40
2018-07-25T02:34:08.352Z,62.20
2018-07-25T02:36:37.702Z,62.50
2018-07-25T02:39:10.567Z,62.60
2018-07-25T02:41:39.685Z,62.60
2018-07-25T02:44:08.843Z,62.50
2018-07-25T02:46:38.158Z,62.50
2018-07-25T02:49:07.702Z,62.80
2018-07-25T02:51:37.010Z,62.80
2018-07-25T02:56:35.234Z,62.60
2018-07-25T02:59:04.970Z,62.70
2018-07-25T03:01:34.174Z,62.80
2018-07-25T03:04:03.458Z,62.70
2018-07-25T03:06:32.889Z,62.90
2018-07-25T03:09:01.987Z,63.30
2018-07-25T03:11:31.144Z,63.10
2018-07-25T03:14:00.358Z,63.00
2018-07-25T03:16:29.488Z,63.00
2018-07-25T03:18:58.898Z,63.10
2018-07-25T03:21:28.022Z,63.20
2018-07-25T03:23:57.074Z,63.10
2018-07-25T03:26:26.212Z,63.10
2018-07-25T03:28:55.256Z,63.30
2018-07-25T03:31:25.600Z,63.30
2018-07-25T03:33:57.569Z,63.30
2018-07-25T03:36:26.674Z,63.30
2018-07-25T03:38:55.636Z,63.40
2018-07-25T03:41:29.272Z,63.40
2018-07-25T03:43:58.536Z,63.40
2018-07-25T03:46:27.543Z,63.50
2018-07-25T03:48:56.809Z,63.50
2018-07-25T03:51:25.994Z,63.70
2018-07-25T03:53:55.199Z,63.50
2018-07-25T03:56:24.224Z,63.50
2018-07-25T03:58:53.163Z,63.60
2018-07-25T04:01:22.542Z,63.80
2018-07-25T04:03:51.700Z,63.70
2018-07-25T04:06:20.793Z,63.60
2018-07-25T04:08:50.195Z,63.70
2018-07-25T04:11:19.353Z,63.80
2018-07-25T04:13:48.499Z,63.70
2018-07-25T04:16:17.593Z,63.90
